sensor_id;sensor_type;location;lat;lon;timestamp;P1;durP1;ratioP1;P2;durP2;ratioP2
56242;SDS011;42155;53.096;23.226;2024-03-25T00:01:27;42.92;;;20.35;;
56242;SDS011;42155;53.096;23.226;2024-03-25T00:03:27;40.25;;;18.88;;
56242;SDS011;42155;53.096;23.226;2024-03-25T00:05:27;40.25;;;17.90;;
56242;SDS011;42155;53.096;23.226;2024-03-25T00:07:28;44.60;;;19.85;;
56242;SDS011;42155;53.096;23.226;2024-03-25T00:09:28;53.30;;;22.98;;
56242;SDS011;42155;53.096;23.226;2024-03-25T00:11:28;48.45;;;22.80;;
56242;SDS011;42155;53.096;23.226;2024-03-25T00:13:29;53.40;;;22.15;;
56242;SDS011;42155;53.096;23.226;2024-03-25T00:15:29;58.90;;;21.80;;
56242;SDS011;42155;53.096;23.226;2024-03-25T00:17:30;53.42;;;22.92;;
56242;SDS011;42155;53.096;23.226;2024-03-25T00:19:30;58.75;;;23.05;;
56242;SDS011;42155;53.096;23.226;2024-03-25T00:21:30;55.47;;;23.33;;
56242;SDS011;42155;53.096;23.226;2024-03-25T00:23:31;57.50;;;24.10;;
56242;SDS011;42155;53.096;23.226;2024-03-25T00:25:31;56.35;;;22.25;;
56242;SDS011;42155;53.096;23.226;2024-03-25T00:27:31;48.33;;;21.02;;
56242;SDS011;42155;53.096;23.226;2024-03-25T00:29:32;55.55;;;23.10;;
56242;SDS011;42155;53.096;23.226;2024-03-25T00:31:32;56.97;;;21.92;;
56242;SDS011;42155;53.096;23.226;2024-03-25T00:33:33;47.28;;;20.20;;
56242;SDS011;42155;53.096;23.226;2024-03-25T00:35:33;49.90;;;19.58;;
56242;SDS011;42155;53.096;23.226;2024-03-25T00:37:34;45.78;;;19.45;;
56242;SDS011;42155;53.096;23.226;2024-03-25T00:39:34;42.55;;;19.13;;
56242;SDS011;42155;53.096;23.226;2024-03-25T00:41:34;41.78;;;19.80;;
56242;SDS011;42155;53.096;23.226;2024-03-25T00:43:35;45.50;;;19.33;;
56242;SDS011;42155;53.096;23.226;2024-03-25T00:45:35;44.88;;;19.40;;
56242;SDS011;42155;53.096;23.226;2024-03-25T00:47:35;43.38;;;18.23;;
56242;SDS011;42155;53.096;23.226;2024-03-25T00:49:36;36.90;;;15.70;;
56242;SDS011;42155;53.096;23.226;2024-03-25T00:51:36;37.70;;;16.60;;
56242;SDS011;42155;53.096;23.226;2024-03-25T00:53:37;39.65;;;17.35;;
56242;SDS011;42155;53.096;23.226;2024-03-25T00:55:37;41.83;;;18.48;;
56242;SDS011;42155;53.096;23.226;2024-03-25T00:57:38;42.58;;;18.55;;
56242;SDS011;42155;53.096;23.226;2024-03-25T00:59:38;40.95;;;19.60;;
56242;SDS011;42155;53.096;23.226;2024-03-25T01:01:38;39.72;;;18.05;;
56242;SDS011;42155;53.096;23.226;2024-03-25T01:03:39;37.00;;;17.40;;
56242;SDS011;42155;53.096;23.226;2024-03-25T01:05:39;39.83;;;18.40;;
56242;SDS011;42155;53.096;23.226;2024-03-25T01:07:40;40.33;;;19.92;;
56242;SDS011;42155;53.096;23.226;2024-03-25T01:09:40;39.70;;;18.20;;
56242;SDS011;42155;53.096;23.226;2024-03-25T01:11:40;37.33;;;18.90;;
56242;SDS011;42155;53.096;23.226;2024-03-25T01:13:40;42.17;;;20.83;;
56242;SDS011;42155;53.096;23.226;2024-03-25T01:15:41;40.72;;;18.98;;
56242;SDS011;42155;53.096;23.226;2024-03-25T01:17:41;42.97;;;18.80;;
56242;SDS011;42155;53.096;23.226;2024-03-25T01:19:41;39.85;;;18.92;;
56242;SDS011;42155;53.096;23.226;2024-03-25T01:21:42;42.80;;;18.92;;
56242;SDS011;42155;53.096;23.226;2024-03-25T01:23:42;41.55;;;19.63;;
56242;SDS011;42155;53.096;23.226;2024-03-25T01:25:42;41.95;;;19.02;;
56242;SDS011;42155;53.096;23.226;2024-03-25T01:27:43;40.35;;;19.48;;
56242;SDS011;42155;53.096;23.226;2024-03-25T01:29:43;46.00;;;19.48;;
56242;SDS011;42155;53.096;23.226;2024-03-25T01:31:43;44.63;;;19.08;;
56242;SDS011;42155;53.096;23.226;2024-03-25T01:33:44;46.47;;;19.90;;
56242;SDS011;42155;53.096;23.226;2024-03-25T01:35:44;41.47;;;18.33;;
56242;SDS011;42155;53.096;23.226;2024-03-25T01:37:44;44.22;;;19.58;;
56242;SDS011;42155;53.096;23.226;2024-03-25T01:39:45;43.13;;;19.27;;
56242;SDS011;42155;53.096;23.226;2024-03-25T01:41:45;40.20;;;19.67;;
56242;SDS011;42155;53.096;23.226;2024-03-25T01:43:45;40.85;;;19.35;;
56242;SDS011;42155;53.096;23.226;2024-03-25T01:45:46;45.80;;;20.50;;
56242;SDS011;42155;53.096;23.226;2024-03-25T01:47:46;36.50;;;18.02;;
56242;SDS011;42155;53.096;23.226;2024-03-25T01:49:47;45.83;;;19.02;;
56242;SDS011;42155;53.096;23.226;2024-03-25T01:51:47;39.97;;;19.38;;
56242;SDS011;42155;53.096;23.226;2024-03-25T01:53:48;39.05;;;17.30;;
56242;SDS011;42155;53.096;23.226;2024-03-25T01:55:49;38.70;;;18.20;;
56242;SDS011;42155;53.096;23.226;2024-03-25T01:57:53;44.03;;;18.88;;
56242;SDS011;42155;53.096;23.226;2024-03-25T01:59:54;40.45;;;18.05;;
56242;SDS011;42155;53.096;23.226;2024-03-25T02:01:54;39.00;;;18.17;;
56242;SDS011;42155;53.096;23.226;2024-03-25T02:03:56;38.33;;;17.52;;
56242;SDS011;42155;53.096;23.226;2024-03-25T02:06:00;40.58;;;18.90;;
56242;SDS011;42155;53.096;23.226;2024-03-25T02:08:03;38.65;;;17.45;;
56242;SDS011;42155;53.096;23.226;2024-03-25T02:10:06;36.85;;;17.42;;
56242;SDS011;42155;53.096;23.226;2024-03-25T02:12:07;40.33;;;18.08;;
56242;SDS011;42155;53.096;23.226;2024-03-25T02:14:08;37.67;;;17.73;;
56242;SDS011;42155;53.096;23.226;2024-03-25T02:16:09;35.95;;;17.38;;
56242;SDS011;42155;53.096;23.226;2024-03-25T02:18:09;34.50;;;17.45;;
56242;SDS011;42155;53.096;23.226;2024-03-25T02:20:10;40.72;;;18.65;;
56242;SDS011;42155;53.096;23.226;2024-03-25T02:22:11;40.00;;;18.50;;
56242;SDS011;42155;53.096;23.226;2024-03-25T02:24:11;37.55;;;17.50;;
56242;SDS011;42155;53.096;23.226;2024-03-25T02:26:12;36.63;;;18.33;;
56242;SDS011;42155;53.096;23.226;2024-03-25T02:28:12;36.00;;;16.45;;
56242;SDS011;42155;53.096;23.226;2024-03-25T02:30:13;39.78;;;17.38;;
56242;SDS011;42155;53.096;23.226;2024-03-25T02:32:13;40.63;;;17.73;;
56242;SDS011;42155;53.096;23.226;2024-03-25T02:34:14;39.40;;;18.08;;
56242;SDS011;42155;53.096;23.226;2024-03-25T02:36:14;34.55;;;17.58;;
56242;SDS011;42155;53.096;23.226;2024-03-25T02:38:15;40.25;;;18.33;;
56242;SDS011;42155;53.096;23.226;2024-03-25T02:40:15;33.80;;;17.10;;
56242;SDS011;42155;53.096;23.226;2024-03-25T02:42:16;35.80;;;18.27;;
56242;SDS011;42155;53.096;23.226;2024-03-25T02:44:16;38.65;;;17.33;;
56242;SDS011;42155;53.096;23.226;2024-03-25T02:46:17;34.13;;;16.25;;
56242;SDS011;42155;53.096;23.226;2024-03-25T02:48:17;41.63;;;18.65;;
56242;SDS011;42155;53.096;23.226;2024-03-25T02:50:18;46.85;;;18.67;;
56242;SDS011;42155;53.096;23.226;2024-03-25T02:52:18;39.55;;;18.58;;
56242;SDS011;42155;53.096;23.226;2024-03-25T02:54:19;45.78;;;20.35;;
56242;SDS011;42155;53.096;23.226;2024-03-25T02:56:20;49.45;;;19.77;;
56242;SDS011;42155;53.096;23.226;2024-03-25T02:58:20;51.65;;;21.00;;
56242;SDS011;42155;53.096;23.226;2024-03-25T03:00:20;47.65;;;21.65;;
56242;SDS011;42155;53.096;23.226;2024-03-25T03:02:21;44.83;;;20.02;;
56242;SDS011;42155;53.096;23.226;2024-03-25T03:04:21;50.55;;;21.08;;
56242;SDS011;42155;53.096;23.226;2024-03-25T03:06:21;49.33;;;20.40;;
56242;SDS011;42155;53.096;23.226;2024-03-25T03:08:22;47.65;;;20.63;;
56242;SDS011;42155;53.096;23.226;2024-03-25T03:10:22;47.85;;;20.27;;
56242;SDS011;42155;53.096;23.226;2024-03-25T03:12:22;49.15;;;20.00;;
56242;SDS011;42155;53.096;23.226;2024-03-25T03:14:23;49.22;;;21.02;;
56242;SDS011;42155;53.096;23.226;2024-03-25T03:16:23;47.17;;;19.73;;
56242;SDS011;42155;53.096;23.226;2024-03-25T03:18:24;45.47;;;19.52;;
56242;SDS011;42155;53.096;23.226;2024-03-25T03:20:24;46.60;;;19.42;;
56242;SDS011;42155;53.096;23.226;2024-03-25T03:22:24;46.50;;;19.55;;
56242;SDS011;42155;53.096;23.226;2024-03-25T03:24:25;49.63;;;19.77;;
56242;SDS011;42155;53.096;23.226;2024-03-25T03:26:25;41.55;;;18.05;;
56242;SDS011;42155;53.096;23.226;2024-03-25T03:28:25;44.60;;;19.52;;
56242;SDS011;42155;53.096;23.226;2024-03-25T03:30:26;44.17;;;18.95;;
56242;SDS011;42155;53.096;23.226;2024-03-25T03:32:26;36.80;;;17.33;;
56242;SDS011;42155;53.096;23.226;2024-03-25T03:34:26;39.40;;;16.67;;
56242;SDS011;42155;53.096;23.226;2024-03-25T03:36:27;44.80;;;17.40;;
56242;SDS011;42155;53.096;23.226;2024-03-25T03:38:27;41.95;;;19.23;;
56242;SDS011;42155;53.096;23.226;2024-03-25T03:40:28;43.90;;;18.60;;
56242;SDS011;42155;53.096;23.226;2024-03-25T03:42:28;38.92;;;17.02;;
56242;SDS011;42155;53.096;23.226;2024-03-25T03:44:29;36.80;;;15.88;;
56242;SDS011;42155;53.096;23.226;2024-03-25T03:46:29;36.45;;;15.32;;
56242;SDS011;42155;53.096;23.226;2024-03-25T03:48:30;34.45;;;15.52;;
56242;SDS011;42155;53.096;23.226;2024-03-25T03:50:30;34.55;;;16.08;;
56242;SDS011;42155;53.096;23.226;2024-03-25T03:52:31;44.08;;;18.42;;
56242;SDS011;42155;53.096;23.226;2024-03-25T03:54:31;75.93;;;28.98;;
56242;SDS011;42155;53.096;23.226;2024-03-25T03:56:31;65.18;;;24.58;;
56242;SDS011;42155;53.096;23.226;2024-03-25T03:58:32;62.28;;;23.75;;
56242;SDS011;42155;53.096;23.226;2024-03-25T04:00:34;45.63;;;18.58;;
56242;SDS011;42155;53.096;23.226;2024-03-25T04:02:35;37.10;;;17.58;;
56242;SDS011;42155;53.096;23.226;2024-03-25T04:04:35;35.05;;;15.88;;
56242;SDS011;42155;53.096;23.226;2024-03-25T04:06:35;37.78;;;16.42;;
56242;SDS011;42155;53.096;23.226;2024-03-25T04:08:36;31.17;;;13.93;;
56242;SDS011;42155;53.096;23.226;2024-03-25T04:10:36;31.15;;;14.68;;
56242;SDS011;42155;53.096;23.226;2024-03-25T04:12:38;31.55;;;13.85;;
56242;SDS011;42155;53.096;23.226;2024-03-25T04:14:39;30.35;;;13.68;;
56242;SDS011;42155;53.096;23.226;2024-03-25T04:16:40;38.22;;;16.27;;
56242;SDS011;42155;53.096;23.226;2024-03-25T04:18:40;28.05;;;13.40;;
56242;SDS011;42155;53.096;23.226;2024-03-25T04:20:41;31.55;;;14.35;;
56242;SDS011;42155;53.096;23.226;2024-03-25T04:22:42;39.00;;;15.60;;
56242;SDS011;42155;53.096;23.226;2024-03-25T04:24:43;42.13;;;14.85;;
56242;SDS011;42155;53.096;23.226;2024-03-25T04:26:44;34.88;;;14.77;;
56242;SDS011;42155;53.096;23.226;2024-03-25T04:28:44;34.42;;;14.02;;
56242;SDS011;42155;53.096;23.226;2024-03-25T04:30:50;43.33;;;16.10;;
56242;SDS011;42155;53.096;23.226;2024-03-25T04:32:51;39.88;;;14.93;;
56242;SDS011;42155;53.096;23.226;2024-03-25T04:34:52;37.67;;;14.38;;
56242;SDS011;42155;53.096;23.226;2024-03-25T04:36:52;41.40;;;15.18;;
56242;SDS011;42155;53.096;23.226;2024-03-25T04:38:53;43.13;;;15.98;;
56242;SDS011;42155;53.096;23.226;2024-03-25T04:40:53;35.25;;;14.65;;
56242;SDS011;42155;53.096;23.226;2024-03-25T04:42:53;38.30;;;15.10;;
56242;SDS011;42155;53.096;23.226;2024-03-25T04:44:54;38.08;;;15.27;;
56242;SDS011;42155;53.096;23.226;2024-03-25T04:46:54;31.48;;;12.70;;
56242;SDS011;42155;53.096;23.226;2024-03-25T04:48:54;25.10;;;11.80;;
56242;SDS011;42155;53.096;23.226;2024-03-25T04:50:55;33.20;;;13.45;;
56242;SDS011;42155;53.096;23.226;2024-03-25T04:52:55;31.02;;;13.25;;
56242;SDS011;42155;53.096;23.226;2024-03-25T04:54:56;25.80;;;12.85;;
56242;SDS011;42155;53.096;23.226;2024-03-25T04:56:56;27.83;;;13.70;;
56242;SDS011;42155;53.096;23.226;2024-03-25T04:58:56;28.92;;;12.90;;
56242;SDS011;42155;53.096;23.226;2024-03-25T05:00:57;26.48;;;13.43;;
56242;SDS011;42155;53.096;23.226;2024-03-25T05:02:57;25.35;;;12.43;;
56242;SDS011;42155;53.096;23.226;2024-03-25T05:04:58;25.42;;;12.35;;
56242;SDS011;42155;53.096;23.226;2024-03-25T05:06:58;25.73;;;12.13;;
56242;SDS011;42155;53.096;23.226;2024-03-25T05:08:59;31.70;;;14.40;;
56242;SDS011;42155;53.096;23.226;2024-03-25T05:10:59;25.30;;;13.50;;
56242;SDS011;42155;53.096;23.226;2024-03-25T05:12:59;29.67;;;13.05;;
56242;SDS011;42155;53.096;23.226;2024-03-25T05:15:00;23.33;;;12.20;;
56242;SDS011;42155;53.096;23.226;2024-03-25T05:17:00;24.08;;;12.70;;
56242;SDS011;42155;53.096;23.226;2024-03-25T05:19:00;22.85;;;12.35;;
56242;SDS011;42155;53.096;23.226;2024-03-25T05:21:01;26.73;;;14.15;;
56242;SDS011;42155;53.096;23.226;2024-03-25T05:23:01;30.75;;;15.88;;
56242;SDS011;42155;53.096;23.226;2024-03-25T05:25:01;36.65;;;16.70;;
56242;SDS011;42155;53.096;23.226;2024-03-25T05:27:02;28.13;;;14.75;;
56242;SDS011;42155;53.096;23.226;2024-03-25T05:29:02;30.33;;;14.68;;
56242;SDS011;42155;53.096;23.226;2024-03-25T05:31:06;33.72;;;14.75;;
56242;SDS011;42155;53.096;23.226;2024-03-25T05:33:09;26.40;;;13.40;;
56242;SDS011;42155;53.096;23.226;2024-03-25T05:35:10;22.42;;;13.02;;
56242;SDS011;42155;53.096;23.226;2024-03-25T05:37:10;25.05;;;12.45;;
56242;SDS011;42155;53.096;23.226;2024-03-25T05:39:10;25.85;;;13.52;;
56242;SDS011;42155;53.096;23.226;2024-03-25T05:41:11;28.70;;;13.75;;
56242;SDS011;42155;53.096;23.226;2024-03-25T05:43:11;31.38;;;15.63;;
56242;SDS011;42155;53.096;23.226;2024-03-25T05:45:11;28.83;;;14.63;;
56242;SDS011;42155;53.096;23.226;2024-03-25T05:47:12;31.55;;;15.80;;
56242;SDS011;42155;53.096;23.226;2024-03-25T05:49:14;31.75;;;15.50;;
56242;SDS011;42155;53.096;23.226;2024-03-25T05:51:14;26.45;;;14.93;;
56242;SDS011;42155;53.096;23.226;2024-03-25T05:53:14;26.98;;;14.07;;
56242;SDS011;42155;53.096;23.226;2024-03-25T05:55:15;25.92;;;13.93;;
56242;SDS011;42155;53.096;23.226;2024-03-25T05:57:15;24.33;;;13.77;;
56242;SDS011;42155;53.096;23.226;2024-03-25T05:59:16;22.75;;;13.23;;
56242;SDS011;42155;53.096;23.226;2024-03-25T06:01:16;23.98;;;13.98;;
56242;SDS011;42155;53.096;23.226;2024-03-25T06:03:16;25.80;;;14.50;;
56242;SDS011;42155;53.096;23.226;2024-03-25T06:05:17;23.27;;;13.60;;
56242;SDS011;42155;53.096;23.226;2024-03-25T06:07:17;25.25;;;13.73;;
56242;SDS011;42155;53.096;23.226;2024-03-25T06:09:17;22.90;;;13.35;;
56242;SDS011;42155;53.096;23.226;2024-03-25T06:11:18;23.00;;;13.20;;
56242;SDS011;42155;53.096;23.226;2024-03-25T06:13:18;20.92;;;11.88;;
56242;SDS011;42155;53.096;23.226;2024-03-25T06:15:19;21.55;;;13.02;;
56242;SDS011;42155;53.096;23.226;2024-03-25T06:17:20;19.65;;;11.70;;
56242;SDS011;42155;53.096;23.226;2024-03-25T06:19:20;20.48;;;11.90;;
56242;SDS011;42155;53.096;23.226;2024-03-25T06:21:20;23.50;;;13.15;;
56242;SDS011;42155;53.096;23.226;2024-03-25T06:23:24;24.20;;;13.60;;
56242;SDS011;42155;53.096;23.226;2024-03-25T06:25:25;22.65;;;13.00;;
56242;SDS011;42155;53.096;23.226;2024-03-25T06:27:26;23.67;;;12.93;;
56242;SDS011;42155;53.096;23.226;2024-03-25T06:29:26;24.60;;;14.00;;
56242;SDS011;42155;53.096;23.226;2024-03-25T06:31:27;23.80;;;13.57;;
56242;SDS011;42155;53.096;23.226;2024-03-25T06:33:27;26.20;;;14.30;;
56242;SDS011;42155;53.096;23.226;2024-03-25T06:35:27;22.88;;;12.25;;
56242;SDS011;42155;53.096;23.226;2024-03-25T06:37:28;26.17;;;14.15;;
56242;SDS011;42155;53.096;23.226;2024-03-25T06:39:28;22.95;;;12.43;;
56242;SDS011;42155;53.096;23.226;2024-03-25T06:41:28;23.95;;;13.32;;
56242;SDS011;42155;53.096;23.226;2024-03-25T06:43:29;22.38;;;11.85;;
56242;SDS011;42155;53.096;23.226;2024-03-25T06:45:29;20.33;;;11.70;;
56242;SDS011;42155;53.096;23.226;2024-03-25T06:47:30;24.55;;;13.00;;
56242;SDS011;42155;53.096;23.226;2024-03-25T06:49:31;23.05;;;12.90;;
56242;SDS011;42155;53.096;23.226;2024-03-25T06:51:31;25.98;;;12.80;;
56242;SDS011;42155;53.096;23.226;2024-03-25T06:53:31;23.15;;;12.27;;
56242;SDS011;42155;53.096;23.226;2024-03-25T06:55:32;23.50;;;11.45;;
56242;SDS011;42155;53.096;23.226;2024-03-25T06:57:32;19.90;;;11.50;;
56242;SDS011;42155;53.096;23.226;2024-03-25T06:59:33;20.83;;;11.05;;
56242;SDS011;42155;53.096;23.226;2024-03-25T07:01:33;16.00;;;10.25;;
56242;SDS011;42155;53.096;23.226;2024-03-25T07:03:34;16.00;;;10.43;;
56242;SDS011;42155;53.096;23.226;2024-03-25T07:05:34;71.63;;;24.80;;
56242;SDS011;42155;53.096;23.226;2024-03-25T07:07:35;23.08;;;12.00;;
56242;SDS011;42155;53.096;23.226;2024-03-25T07:09:35;21.65;;;11.55;;
56242;SDS011;42155;53.096;23.226;2024-03-25T07:11:35;20.45;;;11.80;;
56242;SDS011;42155;53.096;23.226;2024-03-25T07:13:36;24.88;;;12.40;;
56242;SDS011;42155;53.096;23.226;2024-03-25T07:15:36;29.27;;;13.15;;
56242;SDS011;42155;53.096;23.226;2024-03-25T07:17:37;34.33;;;15.18;;
56242;SDS011;42155;53.096;23.226;2024-03-25T07:19:37;26.90;;;13.82;;
56242;SDS011;42155;53.096;23.226;2024-03-25T07:21:37;17.63;;;10.65;;
56242;SDS011;42155;53.096;23.226;2024-03-25T07:23:38;16.63;;;10.70;;
56242;SDS011;42155;53.096;23.226;2024-03-25T07:25:38;24.20;;;11.13;;
56242;SDS011;42155;53.096;23.226;2024-03-25T07:27:38;37.47;;;19.92;;
56242;SDS011;42155;53.096;23.226;2024-03-25T07:29:39;34.85;;;20.83;;
56242;SDS011;42155;53.096;23.226;2024-03-25T07:31:39;35.00;;;19.98;;
56242;SDS011;42155;53.096;23.226;2024-03-25T07:33:40;38.83;;;19.00;;
56242;SDS011;42155;53.096;23.226;2024-03-25T07:35:40;34.17;;;17.48;;
56242;SDS011;42155;53.096;23.226;2024-03-25T07:37:41;25.80;;;14.13;;
56242;SDS011;42155;53.096;23.226;2024-03-25T07:39:41;24.88;;;13.30;;
56242;SDS011;42155;53.096;23.226;2024-03-25T07:41:41;23.05;;;11.60;;
56242;SDS011;42155;53.096;23.226;2024-03-25T07:43:42;21.23;;;11.48;;
56242;SDS011;42155;53.096;23.226;2024-03-25T07:45:42;19.88;;;10.98;;
56242;SDS011;42155;53.096;23.226;2024-03-25T07:47:42;20.20;;;11.45;;
56242;SDS011;42155;53.096;23.226;2024-03-25T07:49:43;22.02;;;12.20;;
56242;SDS011;42155;53.096;23.226;2024-03-25T07:51:43;18.55;;;10.30;;
56242;SDS011;42155;53.096;23.226;2024-03-25T07:53:43;18.15;;;10.50;;
56242;SDS011;42155;53.096;23.226;2024-03-25T07:55:44;20.15;;;11.30;;
56242;SDS011;42155;53.096;23.226;2024-03-25T07:57:44;16.77;;;9.75;;
56242;SDS011;42155;53.096;23.226;2024-03-25T07:59:45;17.70;;;9.95;;
56242;SDS011;42155;53.096;23.226;2024-03-25T08:01:45;16.67;;;9.93;;
56242;SDS011;42155;53.096;23.226;2024-03-25T08:03:46;17.52;;;9.70;;
56242;SDS011;42155;53.096;23.226;2024-03-25T08:05:46;16.98;;;10.02;;
56242;SDS011;42155;53.096;23.226;2024-03-25T08:07:46;17.45;;;9.52;;
56242;SDS011;42155;53.096;23.226;2024-03-25T08:09:47;15.52;;;10.05;;
56242;SDS011;42155;53.096;23.226;2024-03-25T08:11:47;18.35;;;9.98;;
56242;SDS011;42155;53.096;23.226;2024-03-25T08:13:47;14.52;;;8.95;;
56242;SDS011;42155;53.096;23.226;2024-03-25T08:15:48;17.15;;;9.52;;
56242;SDS011;42155;53.096;23.226;2024-03-25T08:17:48;17.10;;;10.43;;
56242;SDS011;42155;53.096;23.226;2024-03-25T08:19:49;17.00;;;9.95;;
56242;SDS011;42155;53.096;23.226;2024-03-25T08:21:49;16.95;;;10.10;;
56242;SDS011;42155;53.096;23.226;2024-03-25T08:23:49;16.60;;;9.68;;
56242;SDS011;42155;53.096;23.226;2024-03-25T08:25:50;14.80;;;8.57;;
56242;SDS011;42155;53.096;23.226;2024-03-25T08:27:50;16.20;;;9.32;;
56242;SDS011;42155;53.096;23.226;2024-03-25T08:29:50;14.18;;;8.48;;
56242;SDS011;42155;53.096;23.226;2024-03-25T08:31:51;14.10;;;9.43;;
56242;SDS011;42155;53.096;23.226;2024-03-25T08:33:51;16.35;;;9.77;;
56242;SDS011;42155;53.096;23.226;2024-03-25T08:35:51;16.17;;;9.02;;
56242;SDS011;42155;53.096;23.226;2024-03-25T08:37:52;15.38;;;9.05;;
56242;SDS011;42155;53.096;23.226;2024-03-25T08:39:52;14.30;;;8.63;;
56242;SDS011;42155;53.096;23.226;2024-03-25T08:41:52;14.63;;;9.05;;
56242;SDS011;42155;53.096;23.226;2024-03-25T08:43:53;15.15;;;9.07;;
56242;SDS011;42155;53.096;23.226;2024-03-25T08:45:53;14.05;;;8.95;;
56242;SDS011;42155;53.096;23.226;2024-03-25T08:47:54;14.82;;;9.63;;
56242;SDS011;42155;53.096;23.226;2024-03-25T08:49:54;16.60;;;8.95;;
56242;SDS011;42155;53.096;23.226;2024-03-25T08:51:54;15.30;;;9.25;;
56242;SDS011;42155;53.096;23.226;2024-03-25T08:53:55;14.50;;;8.52;;
56242;SDS011;42155;53.096;23.226;2024-03-25T08:55:55;13.40;;;9.13;;
56242;SDS011;42155;53.096;23.226;2024-03-25T08:57:56;14.45;;;8.50;;
56242;SDS011;42155;53.096;23.226;2024-03-25T08:59:56;13.88;;;8.63;;
56242;SDS011;42155;53.096;23.226;2024-03-25T09:01:57;13.73;;;8.70;;
56242;SDS011;42155;53.096;23.226;2024-03-25T09:03:57;14.65;;;9.25;;
56242;SDS011;42155;53.096;23.226;2024-03-25T09:05:57;18.75;;;9.73;;
56242;SDS011;42155;53.096;23.226;2024-03-25T09:07:58;17.50;;;9.38;;
56242;SDS011;42155;53.096;23.226;2024-03-25T09:09:58;14.38;;;8.25;;
56242;SDS011;42155;53.096;23.226;2024-03-25T09:11:58;13.98;;;8.00;;
56242;SDS011;42155;53.096;23.226;2024-03-25T09:13:59;16.70;;;9.40;;
56242;SDS011;42155;53.096;23.226;2024-03-25T09:15:59;15.50;;;9.60;;
56242;SDS011;42155;53.096;23.226;2024-03-25T09:17:59;15.63;;;9.05;;
56242;SDS011;42155;53.096;23.226;2024-03-25T09:20:00;13.52;;;7.68;;
56242;SDS011;42155;53.096;23.226;2024-03-25T09:22:00;13.98;;;7.78;;
56242;SDS011;42155;53.096;23.226;2024-03-25T09:24:01;11.93;;;8.15;;
56242;SDS011;42155;53.096;23.226;2024-03-25T09:26:01;13.18;;;8.02;;
56242;SDS011;42155;53.096;23.226;2024-03-25T09:28:01;13.80;;;7.90;;
56242;SDS011;42155;53.096;23.226;2024-03-25T09:30:02;14.35;;;8.05;;
56242;SDS011;42155;53.096;23.226;2024-03-25T09:32:03;13.90;;;8.25;;
56242;SDS011;42155;53.096;23.226;2024-03-25T09:34:04;13.52;;;7.80;;
56242;SDS011;42155;53.096;23.226;2024-03-25T09:36:04;13.75;;;8.25;;
56242;SDS011;42155;53.096;23.226;2024-03-25T09:38:05;12.07;;;7.82;;
56242;SDS011;42155;53.096;23.226;2024-03-25T09:40:05;12.27;;;7.82;;
56242;SDS011;42155;53.096;23.226;2024-03-25T09:42:06;13.10;;;7.55;;
56242;SDS011;42155;53.096;23.226;2024-03-25T09:44:08;14.32;;;7.25;;
56242;SDS011;42155;53.096;23.226;2024-03-25T09:46:09;11.40;;;6.80;;
56242;SDS011;42155;53.096;23.226;2024-03-25T09:48:10;10.60;;;6.97;;
56242;SDS011;42155;53.096;23.226;2024-03-25T09:50:12;13.45;;;7.13;;
56242;SDS011;42155;53.096;23.226;2024-03-25T09:52:14;11.95;;;7.50;;
56242;SDS011;42155;53.096;23.226;2024-03-25T09:54:15;12.77;;;7.28;;
56242;SDS011;42155;53.096;23.226;2024-03-25T09:56:15;11.93;;;8.05;;
56242;SDS011;42155;53.096;23.226;2024-03-25T09:58:16;18.13;;;7.22;;
56242;SDS011;42155;53.096;23.226;2024-03-25T10:00:18;15.93;;;8.20;;
56242;SDS011;42155;53.096;23.226;2024-03-25T10:02:19;12.90;;;8.13;;
56242;SDS011;42155;53.096;23.226;2024-03-25T10:04:20;13.13;;;7.63;;
56242;SDS011;42155;53.096;23.226;2024-03-25T10:06:20;12.80;;;7.75;;
56242;SDS011;42155;53.096;23.226;2024-03-25T10:08:21;11.73;;;7.85;;
56242;SDS011;42155;53.096;23.226;2024-03-25T10:10:22;10.80;;;6.68;;
56242;SDS011;42155;53.096;23.226;2024-03-25T10:12:22;14.30;;;7.90;;
56242;SDS011;42155;53.096;23.226;2024-03-25T10:14:22;12.77;;;8.18;;
56242;SDS011;42155;53.096;23.226;2024-03-25T10:16:23;12.18;;;8.27;;
56242;SDS011;42155;53.096;23.226;2024-03-25T10:18:23;12.30;;;8.02;;
56242;SDS011;42155;53.096;23.226;2024-03-25T10:20:24;14.77;;;8.02;;
56242;SDS011;42155;53.096;23.226;2024-03-25T10:22:24;13.75;;;8.27;;
56242;SDS011;42155;53.096;23.226;2024-03-25T10:24:24;14.07;;;8.27;;
56242;SDS011;42155;53.096;23.226;2024-03-25T10:26:25;13.57;;;7.85;;
56242;SDS011;42155;53.096;23.226;2024-03-25T10:28:29;13.15;;;8.75;;
56242;SDS011;42155;53.096;23.226;2024-03-25T10:30:30;13.05;;;8.02;;
56242;SDS011;42155;53.096;23.226;2024-03-25T10:32:30;15.95;;;8.82;;
56242;SDS011;42155;53.096;23.226;2024-03-25T10:34:30;12.55;;;7.93;;
56242;SDS011;42155;53.096;23.226;2024-03-25T10:36:31;12.95;;;7.53;;
56242;SDS011;42155;53.096;23.226;2024-03-25T10:38:31;13.48;;;8.18;;
56242;SDS011;42155;53.096;23.226;2024-03-25T10:40:34;13.23;;;7.82;;
56242;SDS011;42155;53.096;23.226;2024-03-25T10:42:35;14.68;;;8.23;;
56242;SDS011;42155;53.096;23.226;2024-03-25T10:44:39;12.43;;;7.72;;
56242;SDS011;42155;53.096;23.226;2024-03-25T10:46:39;13.90;;;8.30;;
56242;SDS011;42155;53.096;23.226;2024-03-25T10:48:41;15.70;;;8.85;;
56242;SDS011;42155;53.096;23.226;2024-03-25T10:50:47;12.00;;;7.40;;
56242;SDS011;42155;53.096;23.226;2024-03-25T10:52:49;12.80;;;8.25;;
56242;SDS011;42155;53.096;23.226;2024-03-25T10:54:51;12.73;;;8.30;;
56242;SDS011;42155;53.096;23.226;2024-03-25T10:56:52;13.57;;;8.10;;
56242;SDS011;42155;53.096;23.226;2024-03-25T10:58:53;12.93;;;8.63;;
56242;SDS011;42155;53.096;23.226;2024-03-25T11:00:54;13.90;;;8.20;;
56242;SDS011;42155;53.096;23.226;2024-03-25T11:02:56;13.50;;;8.75;;
56242;SDS011;42155;53.096;23.226;2024-03-25T11:04:58;12.85;;;8.30;;
56242;SDS011;42155;53.096;23.226;2024-03-25T11:07:12;13.82;;;8.70;;
56242;SDS011;42155;53.096;23.226;2024-03-25T11:09:25;13.52;;;9.23;;
56242;SDS011;42155;53.096;23.226;2024-03-25T11:11:32;13.98;;;8.90;;
56242;SDS011;42155;53.096;23.226;2024-03-25T11:13:33;13.18;;;8.68;;
56242;SDS011;42155;53.096;23.226;2024-03-25T11:15:47;14.98;;;8.85;;
56242;SDS011;42155;53.096;23.226;2024-03-25T11:17:48;13.82;;;8.75;;
56242;SDS011;42155;53.096;23.226;2024-03-25T11:19:49;13.18;;;8.90;;
56242;SDS011;42155;53.096;23.226;2024-03-25T11:21:50;15.13;;;9.25;;
56242;SDS011;42155;53.096;23.226;2024-03-25T11:23:50;12.20;;;7.95;;
56242;SDS011;42155;53.096;23.226;2024-03-25T11:25:54;13.35;;;8.35;;
56242;SDS011;42155;53.096;23.226;2024-03-25T11:27:55;12.30;;;7.97;;
56242;SDS011;42155;53.096;23.226;2024-03-25T11:29:56;11.88;;;7.32;;
56242;SDS011;42155;53.096;23.226;2024-03-25T11:31:56;9.00;;;6.07;;
56242;SDS011;42155;53.096;23.226;2024-03-25T11:34:08;14.00;;;6.85;;
56242;SDS011;42155;53.096;23.226;2024-03-25T11:36:09;11.27;;;7.28;;
56242;SDS011;42155;53.096;23.226;2024-03-25T11:38:09;9.88;;;6.68;;
56242;SDS011;42155;53.096;23.226;2024-03-25T11:40:10;7.88;;;5.80;;